Share

Watersmeet, MI

Misery Bay Boat Launch (KMIWATER11) Elev 1736 ft | 46.16 °N, 89.12 °W | Change Station

Current weather conditions updated 3 minutes ago

Clear
Clear
40.3 °F
Feels Like 40 °F
N
2.2
Wind Variable Wind from SW
Sunrise 5:59 AM
Sunset 7:52 PM
Moon Waning Gibbous

Today is forecast to be Much Cooler than yesterday. Chance of flurries tonight.

Pressure 29.89 in
Visibility 10.0 miles
Clouds Clear
Windchill 40 °F
Dew Point 33 °F
Humidity 75%
Rainfall 0.00 in
Snow Depth Not available.
UV 4 out of 16
Pollen 7.80 out of 12
Air Quality Not available.
Flu Activity Sporadic
METAR KLNL 211415Z AUTO 00000KT 10SM CLR 06/06 A2989 RMK AO2 T00630063

More Conditions Fewer Conditions

Pressure 29.89 in
Visibility 10.0 miles
Clouds Clear
Windchill 40 °F
Dew Point 33 °F
Humidity 75%
Rainfall 0.00 in
Snow Depth Not available.
UV 4 out of 16
Pollen 7.80 out of 12
Air Quality Not available.
Flu Activity Sporadic
METAR KLNL 211415Z AUTO 00000KT 10SM CLR 06/06 A2989 RMK AO2 T00630063

More Conditions Fewer Conditions

10-Day Weather Forecast

Almanac

Astronomy

Apr. 21, 2014 Rise Set
Actual Time 5:59 AM CDT 7:52 PM CDT
Civil Twilight 5:27 AM CDT 8:24 PM CDT
Nautical Twilight 4:48 AM CDT 9:03 PM CDT
Astronomical Twilight 4:05 AM CDT 9:47 PM CDT
Moon 1:27 AM CDT 11:21 AM CDT
Length of Visible Light 14h 57m
Length of Day
13h 52m
Tomorrow will be 3m 3s longer.
Waning Gibbous, 58% of the Moon is Illuminated
Today
Waning Gibbous
Apr 22
Last Quarter
Apr 29
New
May 6
First Quarter
May 14
Full

Today's Extremes

State Highs State Lows

Community

  • Bright Eyes
    Bright Eyes
  • Snowy Robin
    Snowy Robin
  • Sun Pillar and Geese
    Sun Pillar and Geese
  • Showers on the Way
    Showers on the Way
  • Easter Morning Fog
    Easter Morning Fog

WunderPhotos

Upload Photos

1,703,648 photos uploaded!

Nearby

Snow Depth

Station Depth Elevation
No new snow has been reported.

Coastal Water Temperatures

Place Temperature
No Stations Reporting

Earthquake Activity

City Distance Mag. Time & Date
No recent earthquake activity has been reported nearby.
Minimum magnitude displayed is 2.5.

Nearby Weather Stations

Station Location Temp. Windchill Dew Point Humidity Wind Precip. Elev Updated Type
Misery Bay Boat Launch, Watersmeet, MI 40.3 °F 40 °F 33 °F 75% SW  at  2.2 mph - / hr 1736 ft 9:30 AM CDT Normal
Razorback Lake, Sayner, WI 45.3 °F 45 °F 45 °F 97% East  at  0.0 mph 0.00 in / hr 1696 ft 9:33 AM CDT Rapid Fire

Show More Stations Show Fewer Stations

What do you think?

We're not finished. Please let us know what you like, what you don't like, and what you are still missing.